Old Ocean, Texas
Current Conditions -  °F | °C
As of 6:53 AM on Wednesday 22 Oct 2014 (Local Time) from KLBX Reporting Station
Haze Haze  
Wind Chill: 60°   Ceiling: Unl
Heat Index: 60°   Visibility: 6mi
Dew Point: 60°   Wind: 5mph
Humidity: 100%   Direction: 20°NNE
Pressure: 30.04"   Gusts: NA
Location:  29.08°N, 95.75°W
Report Text: KLBX 221153Z AUTO 02004KT 6SM BR CLR 16/16 A3004 RMK AO2 SLP171 T01560156 10172 20144 53011
Loading
Personal Weather Stations






























Interactive Weather Map
Tropical Storm Tracking
New forecast layout! Learn more

10-Day Weather Forecast

Advertisements
Track Severe Weather on mobile